createdAt,value
2022-10-19T00:00:37.737Z,50.834805
2022-10-19T00:01:37.726Z,50.834812
2022-10-19T00:02:37.698Z,50.834801
2022-10-19T00:03:37.762Z,50.834801
2022-10-19T00:04:37.690Z,50.834797
2022-10-19T00:05:37.719Z,50.834805
2022-10-19T00:06:37.695Z,50.834801
2022-10-19T00:07:37.658Z,50.834785
2022-10-19T00:08:37.729Z,50.834774
2022-10-19T00:09:37.648Z,50.834785
2022-10-19T00:10:37.634Z,50.834789
2022-10-19T00:11:37.657Z,50.834805
2022-10-19T00:12:37.637Z,50.834805
2022-10-19T00:13:37.627Z,50.834801
2022-10-19T00:14:37.639Z,50.834805
2022-10-19T00:15:37.588Z,50.834816
2022-10-19T00:16:38.419Z,50.834812
2022-10-19T00:17:37.600Z,50.834785
2022-10-19T00:18:37.587Z,50.834789
2022-10-19T00:19:37.550Z,50.834805
2022-10-19T00:20:37.613Z,50.834824
2022-10-19T00:21:37.602Z,50.834797
2022-10-19T00:22:37.549Z,50.834801
2022-10-19T00:23:37.582Z,50.834805
2022-10-19T00:24:37.535Z,50.834824
2022-10-19T00:25:37.481Z,50.834812
2022-10-19T00:26:37.507Z,50.834827
2022-10-19T00:27:38.522Z,50.834812
2022-10-19T00:28:37.653Z,50.834801
2022-10-19T00:29:37.505Z,50.834805
2022-10-19T00:30:37.549Z,50.834797
2022-10-19T00:31:37.524Z,50.834801
2022-10-19T00:32:37.462Z,50.834793
2022-10-19T00:33:37.476Z,50.834816
2022-10-19T00:34:37.442Z,50.834797
2022-10-19T00:35:37.449Z,50.834816
2022-10-19T00:36:37.466Z,50.834808
2022-10-19T00:37:37.408Z,50.834801
2022-10-19T00:38:37.453Z,50.834793
2022-10-19T00:39:37.487Z,50.834789
2022-10-19T00:40:37.464Z,50.834793
2022-10-19T00:41:37.420Z,50.834805
2022-10-19T00:42:37.418Z,50.834793
2022-10-19T00:43:37.382Z,50.834793
2022-10-19T00:44:37.389Z,50.834801
2022-10-19T00:45:37.389Z,50.834812
2022-10-19T00:46:37.374Z,50.834827
2022-10-19T00:47:37.351Z,50.834812
2022-10-19T00:48:37.391Z,50.834812
2022-10-19T00:49:37.399Z,50.834805
2022-10-19T00:50:37.330Z,50.834820
2022-10-19T00:51:37.378Z,50.834812
2022-10-19T00:52:37.312Z,50.834820
2022-10-19T00:53:37.329Z,50.834827
2022-10-19T00:54:37.304Z,50.834820
2022-10-19T00:55:37.264Z,50.834808
2022-10-19T00:56:37.281Z,50.834797
2022-10-19T00:57:37.280Z,50.834801
2022-10-19T00:58:38.241Z,50.834812
2022-10-19T00:59:37.278Z,50.834797
2022-10-19T01:00:37.428Z,50.834808
2022-10-19T01:01:37.280Z,50.834785
2022-10-19T01:02:37.462Z,50.834793
2022-10-19T01:03:37.288Z,50.834801
2022-10-19T01:04:37.234Z,50.834801
2022-10-19T01:05:37.206Z,50.834801
2022-10-19T01:06:37.346Z,50.834805
2022-10-19T01:07:37.556Z,50.834785
2022-10-19T01:08:37.211Z,50.834789
2022-10-19T01:09:37.175Z,50.834782
2022-10-19T01:10:37.188Z,50.834782
2022-10-19T01:11:37.175Z,50.834778
2022-10-19T01:12:37.192Z,50.834801
2022-10-19T01:13:37.164Z,50.834801
2022-10-19T01:14:37.215Z,50.834805
2022-10-19T01:15:37.182Z,50.834789
2022-10-19T01:16:37.100Z,50.834797
2022-10-19T01:17:37.130Z,50.834808
2022-10-19T01:18:37.119Z,50.834801
2022-10-19T01:19:37.091Z,50.834808
2022-10-19T01:20:37.134Z,50.834805
2022-10-19T01:21:37.137Z,50.834805
2022-10-19T01:22:37.077Z,50.834824
2022-10-19T01:23:37.088Z,50.834824
2022-10-19T01:24:39.851Z,50.834820
2022-10-19T01:25:38.071Z,50.834843
2022-10-19T01:26:37.035Z,50.834831
2022-10-19T01:27:37.258Z,50.834820
2022-10-19T01:28:37.111Z,50.834824
2022-10-19T01:29:37.023Z,50.834835
2022-10-19T01:30:37.022Z,50.834835
2022-10-19T01:31:37.029Z,50.834824
2022-10-19T01:32:37.027Z,50.834808
2022-10-19T01:33:37.080Z,50.834820
2022-10-19T01:34:36.991Z,50.834820
2022-10-19T01:35:37.004Z,50.834827
2022-10-19T01:36:37.027Z,50.834812
2022-10-19T01:37:37.075Z,50.834824
2022-10-19T01:38:36.984Z,50.834827
2022-10-19T01:39:37.951Z,50.834827
2022-10-19T01:40:36.950Z,50.834820
2022-10-19T01:41:36.944Z,50.834850
2022-10-19T01:42:36.962Z,50.834835
2022-10-19T01:43:36.956Z,50.834850
2022-10-19T02:06:57.041Z,50.834801
2022-10-19T02:07:58.058Z,50.834793
2022-10-19T02:08:56.877Z,50.834801
2022-10-19T02:09:57.554Z,50.834805
2022-10-19T02:10:56.751Z,50.834846
2022-10-19T02:11:57.672Z,50.834877
2022-10-19T02:12:56.777Z,50.834866
2022-10-19T02:13:56.787Z,50.834866
2022-10-19T02:15:30.155Z,50.834862
2022-10-19T02:15:56.581Z,50.834869
2022-10-19T02:16:56.586Z,50.834862
2022-10-19T02:17:56.568Z,50.834862
2022-10-19T02:18:56.595Z,50.834869
2022-10-19T02:19:56.592Z,50.834854
2022-10-19T02:20:56.554Z,50.834850
2022-10-19T02:21:56.557Z,50.834858
2022-10-19T02:22:56.600Z,50.834846
2022-10-19T02:23:56.543Z,50.834850
2022-10-19T02:24:56.603Z,50.834850
2022-10-19T02:25:56.519Z,50.834846
2022-10-19T02:26:56.526Z,50.834854
2022-10-19T02:27:57.558Z,50.834858
2022-10-19T02:28:56.514Z,50.834850
2022-10-19T02:29:56.515Z,50.834850
2022-10-19T02:30:56.478Z,50.834862
2022-10-19T02:31:56.489Z,50.834862
2022-10-19T02:32:56.461Z,50.834862
2022-10-19T02:33:56.433Z,50.834866
2022-10-19T02:34:56.478Z,50.834869
2022-10-19T02:35:56.437Z,50.834850
2022-10-19T02:36:56.425Z,50.834858
2022-10-19T02:37:56.441Z,50.834854
2022-10-19T02:38:56.454Z,50.834846
2022-10-19T02:39:56.419Z,50.834854
2022-10-19T02:40:56.421Z,50.834858
2022-10-19T02:41:56.411Z,50.834854
2022-10-19T02:42:56.417Z,50.834846
2022-10-19T02:43:56.375Z,50.834862
2022-10-19T02:44:56.366Z,50.834881
2022-10-19T02:45:56.425Z,50.834888
2022-10-19T02:46:56.370Z,50.834866
2022-10-19T02:47:56.367Z,50.834877
2022-10-19T02:48:56.315Z,50.834873
2022-10-19T02:49:56.337Z,50.834850
2022-10-19T02:50:56.342Z,50.834850
2022-10-19T02:51:56.312Z,50.834835
2022-10-19T02:52:56.337Z,50.834824
2022-10-19T02:53:57.332Z,50.834850
2022-10-19T02:54:56.297Z,50.834858
2022-10-19T02:55:56.297Z,50.834850
2022-10-19T02:56:56.272Z,50.834869
2022-10-19T02:57:56.304Z,50.834843
2022-10-19T02:58:56.260Z,50.834835
2022-10-19T02:59:56.256Z,50.834854
2022-10-19T03:00:56.278Z,50.834858
2022-10-19T03:01:56.238Z,50.834827
2022-10-19T03:02:56.227Z,50.834862
2022-10-19T03:03:56.248Z,50.834831
2022-10-19T03:04:56.239Z,50.834812
2022-10-19T03:05:56.203Z,50.834835
2022-10-19T03:06:56.302Z,50.834824
2022-10-19T03:07:56.178Z,50.834816
2022-10-19T03:08:56.215Z,50.834805
2022-10-19T03:09:56.178Z,50.834843
2022-10-19T03:10:56.171Z,50.834835
2022-10-19T03:11:56.146Z,50.834812
2022-10-19T03:12:56.159Z,50.834824
2022-10-19T03:13:56.154Z,50.834820
2022-10-19T03:14:56.110Z,50.834812
2022-10-19T03:15:56.158Z,50.834850
2022-10-19T03:16:56.120Z,50.834835
2022-10-19T03:17:56.115Z,50.834820
2022-10-19T03:18:56.096Z,50.834820
2022-10-19T03:19:56.112Z,50.834816
2022-10-19T03:20:58.861Z,50.834816
2022-10-19T03:21:57.065Z,50.834808
2022-10-19T03:22:56.104Z,50.834820
2022-10-19T03:23:56.060Z,50.834774
2022-10-19T03:24:56.084Z,50.834778
2022-10-19T03:25:56.061Z,50.834805
2022-10-19T03:26:56.035Z,50.834820
2022-10-19T03:27:56.069Z,50.834797
2022-10-19T03:28:56.042Z,50.834805
2022-10-19T03:29:56.104Z,50.834808
2022-10-19T03:30:56.019Z,50.834805
2022-10-19T03:31:56.015Z,50.834797
2022-10-19T03:32:55.998Z,50.834793
2022-10-19T03:33:55.992Z,50.834797
2022-10-19T03:34:55.968Z,50.834805
2022-10-19T03:35:56.022Z,50.834789
2022-10-19T03:36:55.955Z,50.834793
2022-10-19T03:37:55.966Z,50.834797
2022-10-19T03:38:55.978Z,50.834824
2022-10-19T03:39:55.966Z,50.834797
2022-10-19T03:40:55.932Z,50.834782
2022-10-19T03:41:55.942Z,50.834797
2022-10-19T03:42:55.924Z,50.834805
2022-10-19T03:43:55.999Z,50.834797
2022-10-19T03:44:55.892Z,50.834793
2022-10-19T03:45:55.878Z,50.834801
2022-10-19T03:46:55.897Z,50.834808
2022-10-19T04:06:22.197Z,50.834824
2022-10-19T04:07:21.658Z,50.834824
2022-10-19T04:08:21.640Z,50.834782
2022-10-19T04:09:21.648Z,50.834782
2022-10-19T04:10:21.637Z,50.834766
2022-10-19T04:11:21.635Z,50.834774
2022-10-19T04:12:21.633Z,50.834797
2022-10-19T04:13:21.638Z,50.834797
2022-10-19T04:14:32.010Z,50.834793
2022-10-19T04:15:24.169Z,50.834785
2022-10-19T04:16:21.589Z,50.834789
2022-10-19T04:17:21.576Z,50.834789
2022-10-19T04:18:21.575Z,50.834778
2022-10-19T04:19:21.593Z,50.834782
2022-10-19T04:20:22.558Z,50.834793
2022-10-19T04:21:21.566Z,50.834801
2022-10-19T04:22:21.575Z,50.834801
2022-10-19T04:23:21.572Z,50.834801
2022-10-19T04:24:21.585Z,50.834805
2022-10-19T04:25:21.572Z,50.834782
2022-10-19T04:26:21.514Z,50.834797
2022-10-19T04:27:21.563Z,50.834793
2022-10-19T04:28:21.521Z,50.834778
2022-10-19T04:29:23.721Z,50.834801
2022-10-19T04:30:21.548Z,50.834782
2022-10-19T04:31:21.485Z,50.834782
2022-10-19T04:32:21.542Z,50.834805
2022-10-19T04:33:21.474Z,50.834808
2022-10-19T04:34:21.492Z,50.834831
2022-10-19T04:35:21.511Z,50.834839
2022-10-19T04:36:21.509Z,50.834835
2022-10-19T04:37:22.601Z,50.834831
2022-10-19T04:38:21.497Z,50.834846
2022-10-19T04:39:21.423Z,50.834801
2022-10-19T04:40:21.428Z,50.834831
2022-10-19T04:41:21.444Z,50.834846
2022-10-19T04:42:21.452Z,50.834843
2022-10-19T04:43:21.449Z,50.834835
2022-10-19T04:44:21.456Z,50.834831
2022-10-19T04:45:21.387Z,50.834843
2022-10-19T04:46:21.398Z,50.834877
2022-10-19T04:47:22.305Z,50.834862
2022-10-19T04:48:21.383Z,50.834885
2022-10-19T04:49:21.354Z,50.834850
2022-10-19T04:50:21.349Z,50.834858
2022-10-19T04:51:21.344Z,50.834843
2022-10-19T04:52:21.380Z,50.834824
2022-10-19T04:53:21.461Z,50.834812
2022-10-19T04:54:21.526Z,50.834827
2022-10-19T04:55:22.314Z,50.834801
2022-10-19T04:56:21.308Z,50.834824
2022-10-19T04:57:21.301Z,50.834820
2022-10-19T04:58:21.274Z,50.834812
2022-10-19T04:59:21.320Z,50.834820
2022-10-19T05:00:21.270Z,50.834812
2022-10-19T05:01:21.361Z,50.834801
2022-10-19T05:02:21.257Z,50.834782
2022-10-19T05:03:21.257Z,50.834797
2022-10-19T05:04:21.376Z,50.834831
2022-10-19T05:05:21.217Z,50.834805
2022-10-19T05:06:21.203Z,50.834805
2022-10-19T05:07:21.198Z,50.834816
2022-10-19T05:08:21.230Z,50.834835
2022-10-19T05:09:21.221Z,50.834831
2022-10-19T05:10:21.222Z,50.834793
2022-10-19T05:11:21.176Z,50.834797
2022-10-19T05:12:21.182Z,50.834812
2022-10-19T05:13:21.170Z,50.834801
2022-10-19T05:14:21.174Z,50.834793
2022-10-19T05:15:21.139Z,50.834805
2022-10-19T05:16:21.164Z,50.834812
2022-10-19T05:17:21.166Z,50.834812
2022-10-19T05:18:21.139Z,50.834816
2022-10-19T05:19:21.112Z,50.834820
2022-10-19T05:20:21.103Z,50.834812
2022-10-19T05:21:22.144Z,50.834816
2022-10-19T05:22:21.178Z,50.834805
2022-10-19T05:23:21.158Z,50.834820
2022-10-19T05:24:21.149Z,50.834812
2022-10-19T05:25:21.100Z,50.834820
2022-10-19T05:26:21.067Z,50.834808
2022-10-19T05:27:21.103Z,50.834808
2022-10-19T05:28:21.121Z,50.834827
2022-10-19T05:29:21.089Z,50.834835
2022-10-19T05:30:21.112Z,50.834812
2022-10-19T05:31:21.065Z,50.834827
2022-10-19T05:32:21.058Z,50.834835
2022-10-19T05:33:21.066Z,50.834843
2022-10-19T05:34:21.020Z,50.834846
2022-10-19T05:35:22.516Z,50.834824
2022-10-19T05:36:20.993Z,50.834831
2022-10-19T05:37:21.023Z,50.834820
2022-10-19T05:38:21.784Z,50.834827
2022-10-19T05:39:21.001Z,50.834820
2022-10-19T05:40:20.980Z,50.834827
2022-10-19T05:41:20.945Z,50.834812
2022-10-19T05:42:21.198Z,50.834820
2022-10-19T05:43:21.934Z,50.834824
2022-10-19T05:44:20.946Z,50.834820
2022-10-19T05:45:20.936Z,50.834816
2022-10-19T05:46:20.915Z,50.834805
2022-10-19T05:47:20.935Z,50.834816
2022-10-19T05:48:20.906Z,50.834808
2022-10-19T05:49:20.891Z,50.834820
2022-10-19T05:50:20.902Z,50.834820
2022-10-19T05:51:20.873Z,50.834812
2022-10-19T05:52:20.871Z,50.834808
2022-10-19T05:53:20.912Z,50.834816
2022-10-19T05:54:22.713Z,50.834808
2022-10-19T05:55:20.833Z,50.834801
2022-10-19T05:56:20.820Z,50.834827
2022-10-19T05:57:20.828Z,50.834831
2022-10-19T05:58:20.809Z,50.834812
2022-10-19T05:59:20.843Z,50.834805
2022-10-19T06:00:20.811Z,50.834824
2022-10-19T06:01:20.787Z,50.834835
2022-10-19T06:02:20.791Z,50.834816
2022-10-19T06:03:20.789Z,50.834808
2022-10-19T06:04:20.778Z,50.834816
2022-10-19T06:05:20.768Z,50.834797
2022-10-19T06:06:20.756Z,50.834808
2022-10-19T06:07:20.775Z,50.834816
2022-10-19T06:08:20.767Z,50.834808
2022-10-19T06:09:20.711Z,50.834812
2022-10-19T06:10:20.719Z,50.834816
2022-10-19T06:11:20.718Z,50.834801
2022-10-19T06:12:24.308Z,50.834805
2022-10-19T06:13:21.721Z,50.834816
2022-10-19T06:14:20.690Z,50.834801
2022-10-19T06:15:20.703Z,50.834831
2022-10-19T06:16:20.681Z,50.834801
2022-10-19T06:17:20.662Z,50.834793
2022-10-19T06:18:20.684Z,50.834820
2022-10-19T06:19:20.678Z,50.834824
2022-10-19T06:20:20.655Z,50.834831
2022-10-19T06:21:20.710Z,50.834801
2022-10-19T06:22:20.615Z,50.834831
2022-10-19T06:23:20.608Z,50.834843
2022-10-19T06:24:20.631Z,50.834843
2022-10-19T06:25:20.643Z,50.834843
2022-10-19T06:26:20.586Z,50.834816
2022-10-19T06:27:20.651Z,50.834831
2022-10-19T06:28:20.602Z,50.834824
2022-10-19T06:29:20.615Z,50.834820
2022-10-19T06:30:20.594Z,50.834843
2022-10-19T06:31:20.629Z,50.834827
2022-10-19T06:32:20.584Z,50.834831
2022-10-19T06:33:20.558Z,50.834820
2022-10-19T06:34:20.579Z,50.834808
2022-10-19T06:35:20.527Z,50.834831
2022-10-19T06:36:20.545Z,50.834866
2022-10-19T06:37:20.509Z,50.834850
2022-10-19T06:38:20.499Z,50.834827
2022-10-19T06:39:20.491Z,50.834824
2022-10-19T06:40:20.531Z,50.834858
2022-10-19T06:41:20.498Z,50.834866
2022-10-19T06:42:20.519Z,50.834850
2022-10-19T06:43:21.314Z,50.834843
2022-10-19T06:44:20.537Z,50.834820
2022-10-19T06:45:20.461Z,50.834801
2022-10-19T06:46:20.472Z,50.834808
2022-10-19T06:47:20.486Z,50.834820
2022-10-19T06:48:20.426Z,50.834843
2022-10-19T06:49:20.434Z,50.834850
2022-10-19T06:50:20.428Z,50.834858
2022-10-19T06:51:20.415Z,50.834877
2022-10-19T06:52:20.421Z,50.834850
2022-10-19T06:53:20.394Z,50.834854
2022-10-19T06:54:20.374Z,50.834854
2022-10-19T06:55:20.380Z,50.834869
2022-10-19T06:56:20.407Z,50.834888
2022-10-19T06:57:20.367Z,50.834862
2022-10-19T06:58:20.409Z,50.834866
2022-10-19T06:59:20.352Z,50.834885
2022-10-19T07:00:20.329Z,50.834892
2022-10-19T07:01:20.393Z,50.834866
2022-10-19T07:02:20.333Z,50.834866
2022-10-19T07:03:20.348Z,50.834869
2022-10-19T07:04:20.313Z,50.834885
2022-10-19T07:05:20.321Z,50.834873
2022-10-19T07:06:20.308Z,50.834881
2022-10-19T07:07:20.288Z,50.834862
2022-10-19T07:08:20.320Z,50.834854
2022-10-19T07:09:20.299Z,50.834831
2022-10-19T07:10:20.287Z,50.834873
2022-10-19T07:11:20.296Z,50.834850
2022-10-19T07:12:20.250Z,50.834839
2022-10-19T07:13:20.262Z,50.834858
2022-10-19T07:14:20.292Z,50.834824
2022-10-19T07:15:20.234Z,50.834877
2022-10-19T07:16:21.298Z,50.834885
2022-10-19T07:17:20.232Z,50.834850
2022-10-19T07:18:20.246Z,50.834831
2022-10-19T07:19:20.227Z,50.834843
2022-10-19T07:20:20.206Z,50.834846
2022-10-19T07:21:20.193Z,50.834835
2022-10-19T07:22:24.404Z,50.834831
2022-10-19T07:23:22.190Z,50.834831
2022-10-19T07:24:20.234Z,50.834831
2022-10-19T07:25:20.193Z,50.834835
2022-10-19T07:26:20.155Z,50.834789
2022-10-19T07:27:20.160Z,50.834797
2022-10-19T07:28:20.157Z,50.834839
2022-10-19T07:29:20.174Z,50.834846
2022-10-19T07:30:20.169Z,50.834824
2022-10-19T07:31:20.207Z,50.834846
2022-10-19T07:32:20.182Z,50.834808
2022-10-19T07:33:20.124Z,50.834831
2022-10-19T07:34:21.539Z,50.834805
2022-10-19T07:35:20.133Z,50.834850
2022-10-19T07:36:20.104Z,50.834862
2022-10-19T07:37:20.127Z,50.834820
2022-10-19T07:38:20.123Z,50.834854
2022-10-19T07:39:20.047Z,50.834843
2022-10-19T07:40:20.115Z,50.834839
2022-10-19T07:41:20.049Z,50.834843
2022-10-19T07:43:20.066Z,50.834808
2022-10-19T07:44:20.095Z,50.834824
2022-10-19T07:45:20.068Z,50.834846
2022-10-19T07:46:20.035Z,50.834839
2022-10-19T07:47:20.041Z,50.834820
2022-10-19T07:48:20.032Z,50.834843
2022-10-19T07:49:19.988Z,50.834827
2022-10-19T07:50:20.029Z,50.834843
2022-10-19T07:51:20.051Z,50.834846
2022-10-19T07:52:19.999Z,50.834816
2022-10-19T07:53:20.059Z,50.834808
2022-10-19T07:54:20.000Z,50.834801
2022-10-19T07:55:19.937Z,50.834820
2022-10-19T07:56:19.942Z,50.834831
2022-10-19T07:57:19.993Z,50.834808
2022-10-19T07:58:19.911Z,50.834820
2022-10-19T07:59:19.954Z,50.834805
2022-10-19T08:00:19.927Z,50.834846
2022-10-19T08:01:19.946Z,50.834839
2022-10-19T08:02:20.028Z,50.834869
2022-10-19T08:03:57.543Z,50.834827
2022-10-19T08:05:22.016Z,50.834846
2022-10-19T08:06:19.928Z,50.834900
2022-10-19T08:07:19.889Z,50.834843
2022-10-19T08:08:19.878Z,50.834858
2022-10-19T08:09:47.215Z,50.834831
2022-10-19T08:10:21.887Z,50.834858
2022-10-19T08:11:19.871Z,50.834831
2022-10-19T08:12:19.806Z,50.834839
2022-10-19T08:13:19.840Z,50.834866
2022-10-19T08:14:19.828Z,50.834839
2022-10-19T08:17:40.096Z,50.834885
2022-10-19T08:18:40.916Z,50.834850
2022-10-19T08:19:40.185Z,50.834782
2022-10-19T08:20:40.116Z,50.834839
2022-10-19T08:21:40.117Z,50.834850
2022-10-19T08:22:40.913Z,50.834862
2022-10-19T08:23:40.124Z,50.834866
2022-10-19T08:24:40.084Z,50.834827
2022-10-19T08:25:40.109Z,50.834820
2022-10-19T08:26:43.059Z,50.834812
2022-10-19T08:27:40.114Z,50.834827
2022-10-19T08:28:40.131Z,50.834858
2022-10-19T08:29:41.055Z,50.834835
2022-10-19T08:30:40.143Z,50.834827
2022-10-19T08:31:40.120Z,50.834824
2022-10-19T08:32:40.093Z,50.834831
2022-10-19T08:33:40.033Z,50.834839
2022-10-19T08:34:40.108Z,50.834839
2022-10-19T08:35:40.017Z,50.834846
2022-10-19T08:37:44.871Z,50.834846
2022-10-19T08:38:42.024Z,50.834858
2022-10-19T08:39:40.734Z,50.834820
2022-10-19T08:40:40.421Z,50.834850
2022-10-19T08:41:40.123Z,50.834839
2022-10-19T08:42:40.013Z,50.834827
2022-10-19T08:43:40.049Z,50.834827
2022-10-19T08:44:40.064Z,50.834827
2022-10-19T08:46:39.999Z,50.834839
2022-10-19T08:47:40.006Z,50.834843
2022-10-19T08:48:40.017Z,50.834839
2022-10-19T08:49:39.920Z,50.834824
2022-10-19T08:50:39.965Z,50.834835
2022-10-19T08:51:40.037Z,50.834824
2022-10-19T08:52:40.079Z,50.834824
2022-10-19T08:53:39.917Z,50.834827
2022-10-19T08:54:39.994Z,50.834831
2022-10-19T08:55:39.848Z,50.834824
2022-10-19T08:56:50.539Z,50.834835
2022-10-19T08:57:41.917Z,50.834843
2022-10-19T08:58:40.435Z,50.834835
2022-10-19T08:59:39.866Z,50.834827
2022-10-19T09:01:39.837Z,50.834843
2022-10-19T09:02:39.839Z,50.834816
2022-10-19T09:03:56.523Z,50.834812
2022-10-19T09:04:42.427Z,50.834820
2022-10-19T09:05:40.017Z,50.834805
2022-10-19T09:06:39.897Z,50.834805
2022-10-19T09:07:39.960Z,50.834812
2022-10-19T09:08:39.903Z,50.834812
2022-10-19T09:09:39.835Z,50.834827
2022-10-19T09:10:39.767Z,50.834835
2022-10-19T09:11:40.431Z,50.834839
2022-10-19T09:12:39.797Z,50.834808
2022-10-19T09:13:47.031Z,50.834805
2022-10-19T09:14:41.687Z,50.834812
2022-10-19T09:15:39.732Z,50.834824
2022-10-19T09:16:39.725Z,50.834820
2022-10-19T09:17:39.756Z,50.834835
2022-10-19T09:18:39.843Z,50.834843
2022-10-19T09:19:39.803Z,50.834850
2022-10-19T09:20:40.427Z,50.834846
2022-10-19T09:21:47.026Z,50.834843
2022-10-19T09:22:41.676Z,50.834858
2022-10-19T09:23:39.732Z,50.834854
2022-10-19T09:24:39.753Z,50.834839
2022-10-19T09:25:40.434Z,50.834839
2022-10-19T09:26:39.657Z,50.834827
2022-10-19T09:27:39.714Z,50.834846
2022-10-19T09:28:40.265Z,50.834869
2022-10-19T09:29:39.631Z,50.834881
2022-10-19T09:30:39.602Z,50.834839
2022-10-19T09:31:40.661Z,50.834850
2022-10-19T09:32:40.643Z,50.834866
2022-10-19T09:33:39.634Z,50.834846
2022-10-19T09:34:39.639Z,50.834831
2022-10-19T09:36:22.463Z,50.834843
2022-10-19T09:36:51.146Z,50.834846
2022-10-19T09:37:41.535Z,50.834812
2022-10-19T09:42:38.566Z,50.834846
2022-10-19T09:43:38.534Z,50.834835
2022-10-19T09:44:38.453Z,50.834843
2022-10-19T09:45:38.562Z,50.834850
2022-10-19T09:46:39.042Z,50.834839
2022-10-19T09:48:13.353Z,50.834831
2022-10-19T09:48:38.413Z,50.834835
2022-10-19T09:49:38.388Z,50.834839
2022-10-19T09:51:10.815Z,50.834831
2022-10-19T09:52:13.620Z,50.834801
2022-10-19T09:53:12.009Z,50.834801
2022-10-19T09:54:11.774Z,50.834785
2022-10-19T09:55:12.603Z,50.834812
2022-10-19T09:56:13.054Z,50.834820
2022-10-19T09:57:12.647Z,50.834812
2022-10-19T09:58:12.681Z,50.834793
2022-10-19T09:58:38.333Z,50.834785
2022-10-19T09:59:38.356Z,50.834778
2022-10-19T10:00:38.514Z,50.834808
2022-10-19T10:01:43.247Z,50.834797
2022-10-19T10:02:40.366Z,50.834805
2022-10-19T10:03:39.132Z,50.834812
2022-10-19T10:04:38.427Z,50.834824
2022-10-19T10:05:38.361Z,50.834820
2022-10-19T10:06:38.473Z,50.834835
2022-10-19T10:07:38.329Z,50.834816
2022-10-19T10:08:38.357Z,50.834816
2022-10-19T10:09:38.316Z,50.834812
2022-10-19T10:10:38.306Z,50.834797
2022-10-19T10:11:39.112Z,50.834816
2022-10-19T10:12:39.052Z,50.834839
2022-10-19T10:13:38.345Z,50.834801
2022-10-19T10:14:39.117Z,50.834812
2022-10-19T10:15:38.351Z,50.834801
2022-10-19T10:16:38.334Z,50.834820
2022-10-19T10:17:38.374Z,50.834820
2022-10-19T10:18:38.286Z,50.834850
2022-10-19T10:19:38.274Z,50.834789
2022-10-19T10:20:38.183Z,50.834801
2022-10-19T10:21:38.170Z,50.834827
2022-10-19T10:22:38.204Z,50.834846
2022-10-19T10:23:38.280Z,50.834812
2022-10-19T10:24:38.199Z,50.834797
2022-10-19T10:25:38.863Z,50.834793
2022-10-19T10:26:38.318Z,50.834747
2022-10-19T10:27:39.156Z,50.834778
2022-10-19T10:28:38.190Z,50.834843
2022-10-19T10:29:38.251Z,50.834831
2022-10-19T10:30:38.157Z,50.834801
2022-10-19T10:31:38.134Z,50.834763
2022-10-19T10:32:38.098Z,50.834774
2022-10-19T10:33:44.977Z,50.834789
2022-10-19T10:34:57.311Z,50.834778
2022-10-19T10:35:40.177Z,50.834747
2022-10-19T10:36:38.111Z,50.834755
2022-10-19T10:37:38.123Z,50.834778
2022-10-19T10:38:38.106Z,50.834789
2022-10-19T10:39:38.204Z,50.834812
2022-10-19T10:40:38.068Z,50.834801
2022-10-19T10:41:38.079Z,50.834789
2022-10-19T10:42:38.181Z,50.834782
2022-10-19T10:43:38.099Z,50.834793
2022-10-19T10:44:38.254Z,50.834808
2022-10-19T10:45:38.141Z,50.834816
2022-10-19T10:46:38.104Z,50.834812
2022-10-19T10:47:38.115Z,50.834759
2022-10-19T10:48:38.075Z,50.834789
2022-10-19T10:49:38.076Z,50.834793
2022-10-19T10:50:38.029Z,50.834774
2022-10-19T10:51:37.985Z,50.834782
2022-10-19T10:52:38.729Z,50.834778
2022-10-19T10:53:37.982Z,50.834778
2022-10-19T10:54:38.114Z,50.834805
2022-10-19T10:55:38.629Z,50.834789
2022-10-19T10:56:38.016Z,50.834766
2022-10-19T10:57:37.927Z,50.834808
2022-10-19T10:58:37.897Z,50.834782
2022-10-19T10:59:41.671Z,50.834797
2022-10-19T11:01:07.661Z,50.834770
2022-10-19T11:01:37.870Z,50.834793
2022-10-19T11:02:37.809Z,50.834801
2022-10-19T11:03:37.854Z,50.834759
2022-10-19T11:04:37.827Z,50.834778
2022-10-19T11:05:37.876Z,50.834801
2022-10-19T11:06:39.598Z,50.834808
2022-10-19T11:07:38.171Z,50.834797
2022-10-19T11:08:37.920Z,50.834766
2022-10-19T11:09:37.828Z,50.834774
2022-10-19T11:10:37.837Z,50.834747
2022-10-19T11:11:37.837Z,50.834751
2022-10-19T11:12:37.819Z,50.834778
2022-10-19T11:13:38.825Z,50.834759
2022-10-19T11:14:37.810Z,50.834789
2022-10-19T11:15:37.807Z,50.834789
2022-10-19T11:16:37.724Z,50.834789
2022-10-19T11:17:37.867Z,50.834759
2022-10-19T11:18:37.741Z,50.834755
2022-10-19T11:19:37.786Z,50.834763
2022-10-19T11:20:37.746Z,50.834770
2022-10-19T11:21:37.687Z,50.834763
2022-10-19T11:22:38.706Z,50.834774
2022-10-19T11:23:37.707Z,50.834774
2022-10-19T11:24:38.727Z,50.834782
2022-10-19T11:25:37.695Z,50.834778
2022-10-19T11:26:52.874Z,50.834770
2022-10-19T11:27:37.906Z,50.834732
2022-10-19T11:28:37.608Z,50.834747
2022-10-19T11:29:37.644Z,50.834755
2022-10-19T11:30:41.577Z,50.834759
2022-10-19T11:31:39.623Z,50.834778
2022-10-19T11:32:37.800Z,50.834797
2022-10-19T11:33:37.682Z,50.834782
2022-10-19T11:34:37.619Z,50.834793
2022-10-19T11:35:37.616Z,50.834805
2022-10-19T11:36:37.684Z,50.834778
2022-10-19T11:37:45.670Z,50.834793
2022-10-19T11:38:39.562Z,50.834801
2022-10-19T11:39:37.606Z,50.834793
2022-10-19T11:40:40.266Z,50.834789
2022-10-19T11:41:38.538Z,50.834774
2022-10-19T11:42:37.591Z,50.834778
2022-10-19T11:43:37.605Z,50.834785
2022-10-19T11:44:37.529Z,50.834785
2022-10-19T11:45:37.555Z,50.834785
2022-10-19T11:46:37.558Z,50.834785
2022-10-19T11:47:37.614Z,50.834778
2022-10-19T11:48:40.330Z,50.834763
2022-10-19T11:49:39.519Z,50.834770
2022-10-19T11:50:37.574Z,50.834782
2022-10-19T11:51:37.517Z,50.834774
2022-10-19T11:52:37.676Z,50.834793
2022-10-19T11:53:37.497Z,50.834808
2022-10-19T11:54:37.485Z,50.834793
2022-10-19T11:55:38.386Z,50.834785
2022-10-19T11:56:51.523Z,50.834785
2022-10-19T11:57:39.473Z,50.834797
2022-10-19T11:58:37.460Z,50.834789
2022-10-19T11:59:37.438Z,50.834782
2022-10-19T12:00:39.818Z,50.834778
2022-10-19T12:01:38.472Z,50.834789
2022-10-19T12:02:37.744Z,50.834774
2022-10-19T12:03:37.389Z,50.834778
2022-10-19T12:04:37.446Z,50.834801
2022-10-19T12:05:37.384Z,50.834797
2022-10-19T12:06:37.386Z,50.834785
2022-10-19T12:07:37.360Z,50.834778
2022-10-19T12:08:37.433Z,50.834778
2022-10-19T12:09:37.418Z,50.834763
2022-10-19T12:10:37.406Z,50.834782
2022-10-19T12:11:37.351Z,50.834785
2022-10-19T12:12:37.643Z,50.834785
2022-10-19T12:13:37.399Z,50.834793
2022-10-19T12:14:37.381Z,50.834778
2022-10-19T12:15:38.306Z,50.834778
2022-10-19T12:16:37.309Z,50.834793